Portada
METAR-TAF:

METAR-TAF

Aeroports :

Pago Pago, Illes Perifèriques Menors dels EUA

latitud: 14-20S, longitud: 170-43W, altitud: 3 m

Observació

L'informe es va fer fa 5 minuts, a les 20:50 UTC
Vent 5 kt amb direcció variable
Temperatura 29°C
Humitat 74%
Pressió 1013 hPa
Visibilitat: 19.3 km
Escasses núvols a una alçada de 2200 ft

METAR: NSTU 252050Z VRB05KT 12SM FEW022 29/24 A2992 RMK SLP132 8/100 T02880239 52010

Hora: 09:55 (20:55 UTC)

Pronòstic

L'informe es va fer fa 3 hores i 19 minuts, a les 17:36 UTC
Pronòstic vàlid del 25 a les 18 UTC al 26 a les 18 UTC
Vent 8 kt del Sud/Sud-Est
Visibilitat: 10 km
Escasses núvols a una alçada de 2000 ft
Núvols disperses a una alçada de 4000 ft
Cel ennuvolat a una alçada de 12000 ft

TAF: NSTU 251736Z 2518/2618 15008KT P6SM FEW020 SCT040 BKN120

Observacions i pronòstics meteorològics de més de 4000 aeroports (METAR i TAF).

Les estacions disponibles són els punts grocs i vermells al mapa.

Posi el ratolí al punt desitjat per veure el nom de l'estació.

Feu clic per veure les observacions i els pronòstics meteorològics.

Per canviar el mapa: feu clic els botons verds amb una creu de color negre per apropar; al botó verd amb un guió per allunyar la imatge; o en les fletxes verdes per a mapes adjacents.


METAR-TAF: